createdAt,value
2018-12-24T00:01:16.887Z,97.00
2018-12-24T00:03:46.008Z,97.00
2018-12-24T00:06:15.008Z,97.10
2018-12-24T00:08:45.380Z,97.20
2018-12-24T00:11:14.436Z,97.30
2018-12-24T00:13:44.255Z,97.30
2018-12-24T00:16:14.156Z,97.30
2018-12-24T00:18:43.356Z,97.40
2018-12-24T00:21:12.452Z,97.40
2018-12-24T00:23:41.779Z,97.30
2018-12-24T00:26:10.942Z,97.40
2018-12-24T00:28:39.853Z,97.40
2018-12-24T00:31:09.014Z,97.30
2018-12-24T00:33:38.109Z,97.30
2018-12-24T00:36:07.170Z,97.30
2018-12-24T00:38:36.458Z,97.30
2018-12-24T00:41:05.538Z,97.40
2018-12-24T00:43:34.394Z,97.40
2018-12-24T00:46:03.490Z,97.40
2018-12-24T00:48:32.642Z,97.40
2018-12-24T00:51:01.587Z,97.40
2018-12-24T00:53:30.615Z,97.50
2018-12-24T00:55:59.646Z,97.50
2018-12-24T00:58:28.623Z,97.50
2018-12-24T01:00:57.765Z,97.50
2018-12-24T01:03:27.026Z,97.50
2018-12-24T01:05:56.053Z,97.50
2018-12-24T01:08:25.050Z,97.50
2018-12-24T01:10:54.124Z,97.50
2018-12-24T01:13:23.138Z,97.50
2018-12-24T01:15:52.107Z,97.50
2018-12-24T01:18:21.101Z,97.50
2018-12-24T01:20:50.846Z,97.50
2018-12-24T01:23:19.770Z,97.50
2018-12-24T01:25:48.798Z,97.50
2018-12-24T01:28:17.782Z,97.50
2018-12-24T01:30:47.073Z,97.50
2018-12-24T01:33:16.155Z,97.50
2018-12-24T01:35:45.217Z,97.80
2018-12-24T01:38:14.778Z,97.60
2018-12-24T01:40:43.685Z,97.60
2018-12-24T01:43:12.722Z,97.60
2018-12-24T01:45:41.849Z,97.60
2018-12-24T01:48:10.845Z,97.60
2018-12-24T01:50:39.802Z,97.70
2018-12-24T01:53:08.949Z,97.60
2018-12-24T01:55:38.024Z,97.60
2018-12-24T01:58:06.927Z,97.70
2018-12-24T02:00:35.955Z,97.70
2018-12-24T02:03:05.053Z,97.70
2018-12-24T02:05:34.074Z,97.70
2018-12-24T02:08:03.025Z,97.70
2018-12-24T02:10:32.480Z,97.70
2018-12-24T02:13:02.585Z,97.70
2018-12-24T02:15:31.543Z,97.70
2018-12-24T02:18:00.507Z,97.70
2018-12-24T02:20:29.523Z,97.70
2018-12-24T02:22:58.460Z,97.70
2018-12-24T02:25:27.497Z,97.70
2018-12-24T02:27:56.468Z,97.70
2018-12-24T02:30:25.773Z,97.70
2018-12-24T02:32:54.768Z,97.70
2018-12-24T02:35:23.772Z,97.70
2018-12-24T02:37:52.813Z,97.70
2018-12-24T02:40:21.831Z,97.70
2018-12-24T02:42:52.513Z,97.70
2018-12-24T02:45:21.515Z,97.70
2018-12-24T02:47:50.502Z,97.70
2018-12-24T02:50:19.597Z,97.70
2018-12-24T02:52:48.585Z,97.70
2018-12-24T02:55:17.620Z,97.70
2018-12-24T02:57:46.536Z,97.70
2018-12-24T03:00:15.534Z,97.70
2018-12-24T03:02:44.592Z,97.70
2018-12-24T03:05:13.831Z,97.70
2018-12-24T03:07:42.769Z,97.70
2018-12-24T03:10:11.835Z,97.70
2018-12-24T03:12:40.845Z,97.70
2018-12-24T03:15:09.907Z,97.70
2018-12-24T03:17:39.059Z,97.70
2018-12-24T03:20:08.041Z,97.70
2018-12-24T03:22:37.059Z,98.00
2018-12-24T03:25:06.299Z,97.70
2018-12-24T03:27:35.275Z,97.70
2018-12-24T03:30:04.560Z,97.70
2018-12-24T03:32:33.915Z,97.60
2018-12-24T03:35:03.216Z,97.60
2018-12-24T03:37:32.450Z,97.60
2018-12-24T03:40:01.721Z,97.70
2018-12-24T03:42:31.804Z,97.60
2018-12-24T03:45:01.237Z,97.60
2018-12-24T03:47:30.726Z,97.60
2018-12-24T03:49:59.964Z,97.60
2018-12-24T03:52:29.009Z,97.70
2018-12-24T03:54:58.203Z,97.70
2018-12-24T03:57:27.316Z,97.70
2018-12-24T03:59:57.916Z,97.80
2018-12-24T04:02:27.195Z,97.80
2018-12-24T04:04:56.233Z,97.70
2018-12-24T04:07:25.265Z,97.70
2018-12-24T04:09:55.073Z,97.70
2018-12-24T04:12:24.096Z,97.70
2018-12-24T04:14:53.467Z,97.70
2018-12-24T04:17:22.736Z,97.70
2018-12-24T04:19:51.858Z,97.60
2018-12-24T04:22:20.933Z,97.50
2018-12-24T04:24:50.101Z,97.50
2018-12-24T04:27:19.409Z,97.40
2018-12-24T04:29:48.627Z,97.50
2018-12-24T04:32:18.042Z,97.40
2018-12-24T04:34:47.358Z,97.20
2018-12-24T04:37:16.702Z,97.20
2018-12-24T04:39:46.032Z,97.10
2018-12-24T04:42:15.378Z,97.00
2018-12-24T04:44:44.747Z,96.80
2018-12-24T04:47:13.992Z,96.70
2018-12-24T04:49:43.231Z,96.40
2018-12-24T04:52:12.552Z,95.90
2018-12-24T04:54:41.651Z,95.70
2018-12-24T04:58:11.596Z,95.80
2018-12-24T05:00:40.861Z,95.90
2018-12-24T05:03:09.715Z,95.70
2018-12-24T05:05:38.640Z,95.50
2018-12-24T05:08:07.949Z,95.20
2018-12-24T05:10:37.006Z,95.20
2018-12-24T05:13:06.539Z,95.10
2018-12-24T05:15:36.322Z,95.40
2018-12-24T05:18:06.832Z,95.20
2018-12-24T05:20:36.153Z,95.10
2018-12-24T05:23:05.027Z,95.10
2018-12-24T05:25:33.833Z,95.10
2018-12-24T05:28:02.597Z,95.10
2018-12-24T05:30:31.630Z,95.10
2018-12-24T05:33:00.448Z,95.00
2018-12-24T05:35:29.228Z,94.40
2018-12-24T05:37:58.120Z,94.60
2018-12-24T05:40:27.022Z,93.20
2018-12-24T05:42:55.888Z,92.50
2018-12-24T05:45:24.723Z,92.20
2018-12-24T05:47:53.543Z,92.10
2018-12-24T05:50:22.413Z,92.20
2018-12-24T05:52:51.223Z,92.20
2018-12-24T05:55:20.087Z,92.40
2018-12-24T05:57:48.856Z,92.50
2018-12-24T06:00:17.658Z,92.60
2018-12-24T06:02:46.572Z,92.80
2018-12-24T06:05:15.356Z,92.90
2018-12-24T06:07:44.254Z,92.80
2018-12-24T06:10:13.039Z,92.60
2018-12-24T06:12:41.953Z,92.80
2018-12-24T06:15:10.896Z,92.20
2018-12-24T06:17:39.728Z,91.80
2018-12-24T06:20:08.699Z,91.50
2018-12-24T06:22:37.687Z,91.40
2018-12-24T06:25:06.491Z,91.40
2018-12-24T06:27:35.339Z,90.90
2018-12-24T06:30:04.946Z,91.30
2018-12-24T06:32:33.833Z,91.50
2018-12-24T06:35:02.799Z,91.70
2018-12-24T06:37:31.665Z,90.40
2018-12-24T06:40:00.632Z,89.60
2018-12-24T06:42:30.879Z,88.80
2018-12-24T06:44:59.789Z,87.20
2018-12-24T06:47:28.629Z,87.80
2018-12-24T06:49:57.570Z,88.00
2018-12-24T06:52:26.407Z,87.80
2018-12-24T06:54:55.294Z,83.40
2018-12-24T06:57:24.157Z,84.10
2018-12-24T06:59:53.080Z,84.70
2018-12-24T07:02:21.938Z,84.90
2018-12-24T07:04:50.760Z,82.50
2018-12-24T07:07:19.692Z,81.60
2018-12-24T07:09:48.673Z,78.10
2018-12-24T07:12:17.681Z,77.00
2018-12-24T07:14:47.163Z,71.00
2018-12-24T07:17:19.561Z,70.70
2018-12-24T07:19:51.541Z,70.30
2018-12-24T07:22:20.381Z,70.30
2018-12-24T07:24:49.288Z,69.90
2018-12-24T07:27:18.157Z,71.10
2018-12-24T07:29:47.084Z,71.00
2018-12-24T07:32:22.008Z,71.80
2018-12-24T07:34:51.889Z,71.70
2018-12-24T07:37:20.727Z,71.80
2018-12-24T07:39:49.596Z,72.70
2018-12-24T07:42:18.458Z,73.00
2018-12-24T07:44:47.356Z,74.60
2018-12-24T07:47:17.160Z,74.50
2018-12-24T07:49:46.042Z,74.10
2018-12-24T07:52:15.675Z,74.20
2018-12-24T07:54:44.605Z,73.20
2018-12-24T07:57:13.476Z,72.90
2018-12-24T07:59:43.752Z,73.00
2018-12-24T08:02:12.740Z,73.20
2018-12-24T08:04:41.565Z,72.90
2018-12-24T08:07:10.529Z,73.20
2018-12-24T08:09:39.554Z,73.00
2018-12-24T08:12:08.450Z,72.10
2018-12-24T08:14:37.368Z,73.70
2018-12-24T08:17:06.300Z,73.50
2018-12-24T08:19:35.192Z,74.00
2018-12-24T08:22:04.133Z,74.80
2018-12-24T08:24:33.101Z,76.10
2018-12-24T08:27:01.917Z,75.00
2018-12-24T08:29:30.802Z,75.40
2018-12-24T08:31:59.857Z,76.00
2018-12-24T08:34:28.890Z,75.40
2018-12-24T08:36:59.221Z,76.50
2018-12-24T08:39:28.403Z,76.60
2018-12-24T08:41:57.299Z,78.30
2018-12-24T08:44:26.215Z,79.40
2018-12-24T08:46:55.134Z,80.80
2018-12-24T08:49:24.037Z,80.90
2018-12-24T08:51:54.525Z,82.00
2018-12-24T08:54:23.705Z,82.50
2018-12-24T08:56:52.760Z,82.70
2018-12-24T08:59:21.676Z,82.90
2018-12-24T09:01:50.677Z,83.40
2018-12-24T09:04:19.828Z,82.90
2018-12-24T09:06:48.675Z,81.70
2018-12-24T09:09:19.000Z,81.10
2018-12-24T09:11:48.186Z,79.10
2018-12-24T09:14:17.452Z,81.00
2018-12-24T09:16:46.418Z,80.90
2018-12-24T09:19:15.395Z,81.20
2018-12-24T09:21:44.288Z,80.90
2018-12-24T09:24:13.794Z,80.70
2018-12-24T09:26:42.724Z,79.00
2018-12-24T09:29:11.661Z,80.30
2018-12-24T09:31:40.697Z,80.80
2018-12-24T09:34:09.629Z,78.70
2018-12-24T09:36:38.623Z,75.40
2018-12-24T09:39:07.770Z,70.10
2018-12-24T09:41:36.889Z,68.20
2018-12-24T09:44:05.810Z,62.70
2018-12-24T09:46:35.275Z,64.20
2018-12-24T09:49:04.177Z,64.50
2018-12-24T09:51:33.074Z,62.70
2018-12-24T09:54:01.871Z,62.00
2018-12-24T09:56:30.849Z,61.20
2018-12-24T09:58:59.761Z,58.50
2018-12-24T10:01:31.240Z,57.70
2018-12-24T10:04:02.943Z,54.90
2018-12-24T10:06:31.848Z,55.30
2018-12-24T10:09:01.130Z,48.80
2018-12-24T10:11:30.065Z,47.70
2018-12-24T10:14:00.085Z,45.30
2018-12-24T10:16:28.960Z,44.80
2018-12-24T10:18:58.118Z,46.60
2018-12-24T10:21:27.103Z,45.40
2018-12-24T10:23:56.183Z,45.40
2018-12-24T10:26:25.203Z,47.60
2018-12-24T10:28:54.224Z,45.80
2018-12-24T10:31:23.503Z,47.00
2018-12-24T10:33:52.905Z,47.10
2018-12-24T10:36:21.813Z,47.60
2018-12-24T10:38:50.728Z,47.60
2018-12-24T10:41:19.863Z,48.40
2018-12-24T10:43:48.845Z,48.60
2018-12-24T10:46:17.804Z,49.70
2018-12-24T10:48:46.699Z,48.50
2018-12-24T10:51:15.710Z,49.90
2018-12-24T10:53:44.915Z,50.30
2018-12-24T10:56:13.879Z,51.20
2018-12-24T10:58:43.006Z,49.00
2018-12-24T11:01:11.961Z,45.40
2018-12-24T11:03:40.967Z,49.00
2018-12-24T11:06:09.983Z,50.50
2018-12-24T11:08:38.766Z,48.10
2018-12-24T11:11:07.574Z,47.50
2018-12-24T11:13:36.529Z,47.80
2018-12-24T11:16:05.338Z,46.30
2018-12-24T11:18:34.306Z,46.20
2018-12-24T11:21:03.260Z,47.20
2018-12-24T11:23:32.488Z,47.20
2018-12-24T11:26:01.483Z,49.60
2018-12-24T11:28:31.822Z,50.50
2018-12-24T11:31:02.593Z,46.40
2018-12-24T11:33:31.621Z,45.90
2018-12-24T11:36:01.255Z,47.40
2018-12-24T11:38:30.248Z,48.40
2018-12-24T11:40:59.311Z,47.40
2018-12-24T11:43:29.428Z,47.90
2018-12-24T11:45:58.362Z,47.80
2018-12-24T11:48:27.435Z,47.80
2018-12-24T11:50:56.284Z,48.00
2018-12-24T11:53:25.172Z,48.70
2018-12-24T11:55:54.167Z,48.00
2018-12-24T11:58:23.175Z,47.90
2018-12-24T12:00:52.182Z,50.10
2018-12-24T12:03:21.105Z,48.10
2018-12-24T12:05:49.963Z,48.10
2018-12-24T12:08:18.925Z,49.40
2018-12-24T12:10:49.345Z,50.20
2018-12-24T12:13:18.245Z,48.70
2018-12-24T12:15:47.195Z,50.00
2018-12-24T12:18:16.133Z,49.00
2018-12-24T12:20:52.477Z,49.50
2018-12-24T12:23:17.604Z,49.20
2018-12-24T12:25:46.721Z,47.80
2018-12-24T12:28:17.206Z,46.40
2018-12-24T12:30:46.814Z,47.40
2018-12-24T12:33:17.769Z,47.70
2018-12-24T12:35:46.767Z,48.70
2018-12-24T12:38:17.108Z,47.90
2018-12-24T12:40:46.045Z,49.00
2018-12-24T12:43:16.414Z,49.10
2018-12-24T12:45:51.247Z,49.80
2018-12-24T12:48:16.048Z,49.80
2018-12-24T12:50:44.971Z,49.00
2018-12-24T12:53:14.091Z,47.80
2018-12-24T12:55:43.071Z,47.40
2018-12-24T12:58:11.886Z,47.30
2018-12-24T13:00:40.890Z,47.60
2018-12-24T13:03:10.351Z,48.30
2018-12-24T13:05:40.566Z,48.10
2018-12-24T13:08:09.407Z,47.60
2018-12-24T13:10:38.522Z,48.80
2018-12-24T13:13:09.021Z,50.40
2018-12-24T13:15:38.129Z,50.70
2018-12-24T13:18:07.340Z,51.20
2018-12-24T13:20:36.521Z,52.40
2018-12-24T13:23:05.568Z,52.40
2018-12-24T13:25:35.281Z,52.70
2018-12-24T13:28:04.352Z,53.20
2018-12-24T13:30:33.409Z,52.90
2018-12-24T13:33:02.405Z,53.40
2018-12-24T13:35:31.256Z,53.20
2018-12-24T13:38:00.198Z,53.50
2018-12-24T13:40:30.682Z,53.70
2018-12-24T13:43:00.011Z,54.90
2018-12-24T13:45:30.166Z,54.50
2018-12-24T13:47:59.248Z,55.40
2018-12-24T13:50:29.489Z,54.80
2018-12-24T13:52:58.296Z,54.40
2018-12-24T13:55:27.291Z,53.50
2018-12-24T13:57:56.226Z,53.60
2018-12-24T14:00:25.219Z,52.30
2018-12-24T14:02:54.096Z,54.20
2018-12-24T14:05:23.263Z,53.70
2018-12-24T14:07:52.091Z,54.70
2018-12-24T14:10:21.078Z,55.80
2018-12-24T14:12:50.100Z,56.80
2018-12-24T14:15:19.232Z,57.10
2018-12-24T14:17:49.687Z,57.60
2018-12-24T14:20:18.536Z,57.00
2018-12-24T14:22:47.495Z,57.70
2018-12-24T14:25:17.785Z,57.00
2018-12-24T14:27:46.689Z,57.20
2018-12-24T14:30:16.562Z,57.20
2018-12-24T14:32:45.691Z,57.50
2018-12-24T14:35:14.623Z,57.20
2018-12-24T14:37:43.493Z,57.80
2018-12-24T14:40:12.632Z,58.00
2018-12-24T14:42:41.681Z,58.60
2018-12-24T14:45:10.760Z,59.70
2018-12-24T14:47:39.719Z,61.40
2018-12-24T14:50:08.781Z,61.60
2018-12-24T14:52:37.661Z,63.10
2018-12-24T14:55:06.795Z,63.60
2018-12-24T14:57:35.668Z,63.60
2018-12-24T15:00:06.411Z,65.60
2018-12-24T15:02:35.339Z,63.40
2018-12-24T15:05:04.611Z,63.30
2018-12-24T15:07:33.549Z,65.20
2018-12-24T15:10:03.868Z,68.10
2018-12-24T15:12:32.777Z,69.70
2018-12-24T15:15:01.746Z,70.40
2018-12-24T15:17:31.692Z,72.10
2018-12-24T15:20:00.888Z,73.10
2018-12-24T15:22:32.255Z,74.80
2018-12-24T15:25:01.362Z,76.80
2018-12-24T15:27:31.069Z,78.80
2018-12-24T15:30:00.309Z,80.10
2018-12-24T15:32:32.914Z,81.50
2018-12-24T15:35:01.908Z,82.90
2018-12-24T15:37:30.915Z,82.80
2018-12-24T15:40:00.576Z,82.70
2018-12-24T15:42:29.477Z,82.50
2018-12-24T15:44:58.467Z,82.80
2018-12-24T15:47:27.508Z,82.40
2018-12-24T15:49:58.297Z,81.10
2018-12-24T15:52:27.320Z,80.30
2018-12-24T15:54:56.281Z,80.50
2018-12-24T15:57:25.203Z,79.90
2018-12-24T15:59:54.130Z,80.00
2018-12-24T16:02:23.010Z,78.60
2018-12-24T16:04:51.933Z,78.00
2018-12-24T16:07:20.875Z,77.20
2018-12-24T16:09:51.171Z,77.00
2018-12-24T16:12:20.067Z,76.20
2018-12-24T16:14:49.036Z,76.00
2018-12-24T16:17:19.570Z,75.10
2018-12-24T16:19:48.484Z,74.70
2018-12-24T16:22:20.221Z,75.40
2018-12-24T16:24:49.207Z,76.00
2018-12-24T16:27:18.013Z,77.30
2018-12-24T16:29:46.816Z,76.90
2018-12-24T16:32:15.690Z,76.30
2018-12-24T16:34:44.652Z,75.60
2018-12-24T16:37:13.635Z,74.50
2018-12-24T16:39:42.506Z,73.70
2018-12-24T16:42:11.336Z,73.30
2018-12-24T16:44:40.309Z,73.70
2018-12-24T16:47:09.831Z,74.70
2018-12-24T16:49:38.764Z,74.40
2018-12-24T16:52:07.565Z,73.80
2018-12-24T16:54:36.556Z,72.90
2018-12-24T16:57:05.533Z,72.10
2018-12-24T16:59:34.441Z,73.20
2018-12-24T17:02:03.396Z,75.20
2018-12-24T17:04:32.325Z,74.50
2018-12-24T17:07:01.393Z,73.10
2018-12-24T17:09:30.479Z,72.40
2018-12-24T17:11:59.510Z,72.30
2018-12-24T17:14:28.384Z,72.70
2018-12-24T17:16:57.251Z,71.30
2018-12-24T17:19:26.187Z,71.90
2018-12-24T17:21:55.119Z,71.20
2018-12-24T17:24:24.002Z,72.10
2018-12-24T17:26:52.854Z,72.80
2018-12-24T17:29:21.888Z,72.00
2018-12-24T17:31:51.053Z,72.00
2018-12-24T17:34:19.960Z,71.50
2018-12-24T17:36:48.832Z,71.90
2018-12-24T17:39:17.722Z,72.30
2018-12-24T17:41:46.608Z,72.30
2018-12-24T17:44:15.551Z,73.10
2018-12-24T17:46:44.445Z,72.70
2018-12-24T17:49:14.578Z,73.10
2018-12-24T17:51:43.467Z,72.90
2018-12-24T17:54:12.401Z,72.90
2018-12-24T17:56:42.900Z,73.50
2018-12-24T17:59:11.665Z,73.30
2018-12-24T18:01:40.549Z,74.10
2018-12-24T18:04:09.411Z,74.70
2018-12-24T18:06:38.332Z,75.20
2018-12-24T18:09:07.292Z,74.90
2018-12-24T18:11:36.828Z,74.70
2018-12-24T18:14:06.441Z,75.00
2018-12-24T18:16:35.687Z,75.70
2018-12-24T18:19:05.298Z,75.30
2018-12-24T18:21:36.483Z,75.10
2018-12-24T18:24:05.373Z,75.00
2018-12-24T18:26:34.288Z,75.00
2018-12-24T18:29:03.283Z,75.00
2018-12-24T18:31:32.354Z,75.30
2018-12-24T18:34:03.929Z,75.90
2018-12-24T18:36:34.469Z,75.90
2018-12-24T18:39:05.724Z,75.90
2018-12-24T18:41:34.759Z,75.90
2018-12-24T18:44:03.696Z,75.90
2018-12-24T18:46:33.635Z,75.80
2018-12-24T18:49:04.772Z,75.90
2018-12-24T18:51:33.714Z,75.80
2018-12-24T18:54:06.867Z,75.80
2018-12-24T18:56:35.731Z,75.80
2018-12-24T18:59:06.262Z,75.90
2018-12-24T19:01:38.271Z,76.60
2018-12-24T19:04:07.300Z,76.10
2018-12-24T19:06:36.740Z,76.70
2018-12-24T19:09:07.673Z,76.90
2018-12-24T19:11:36.533Z,76.90
2018-12-24T19:14:05.552Z,76.70
2018-12-24T19:16:35.105Z,76.40
2018-12-24T19:19:04.008Z,75.90
2018-12-24T19:21:32.827Z,75.80
2018-12-24T19:24:01.843Z,76.10
2018-12-24T19:26:30.771Z,75.90
2018-12-24T19:28:59.649Z,75.80
2018-12-24T19:31:30.366Z,76.00
2018-12-24T19:33:59.218Z,75.40
2018-12-24T19:36:29.548Z,76.00
2018-12-24T19:39:00.460Z,74.80
2018-12-24T19:41:29.585Z,74.70
2018-12-24T19:43:58.440Z,74.10
2018-12-24T19:46:28.729Z,73.70
2018-12-24T19:48:58.161Z,74.00
2018-12-24T19:51:27.072Z,74.30
2018-12-24T19:53:56.244Z,73.30
2018-12-24T19:56:25.218Z,73.00
2018-12-24T19:58:54.685Z,72.90
2018-12-24T20:01:23.587Z,73.40
2018-12-24T20:03:52.517Z,73.80
2018-12-24T20:06:21.374Z,73.30
2018-12-24T20:08:50.263Z,72.90
2018-12-24T20:11:19.424Z,72.20
2018-12-24T20:13:48.307Z,72.50
2018-12-24T20:16:17.251Z,71.50
2018-12-24T20:18:46.106Z,72.00
2018-12-24T20:21:16.141Z,71.50
2018-12-24T20:23:45.235Z,70.30
2018-12-24T20:26:14.200Z,70.60
2018-12-24T20:28:43.476Z,70.50
2018-12-24T20:31:12.696Z,70.80
2018-12-24T20:33:42.438Z,70.60
2018-12-24T20:36:11.343Z,70.70
2018-12-24T20:38:40.320Z,69.50
2018-12-24T20:41:09.308Z,69.30
2018-12-24T20:43:38.987Z,69.30
2018-12-24T20:46:09.211Z,69.30
2018-12-24T20:48:38.005Z,68.60
2018-12-24T20:51:15.951Z,69.40
2018-12-24T20:53:38.816Z,70.00
2018-12-24T20:56:07.848Z,70.10
2018-12-24T20:58:37.577Z,70.10
2018-12-24T21:01:06.460Z,70.00
2018-12-24T21:03:36.426Z,70.00
2018-12-24T21:06:05.777Z,69.90
2018-12-24T21:08:34.732Z,70.20
2018-12-24T21:11:03.667Z,69.70
2018-12-24T21:13:32.699Z,69.90
2018-12-24T21:16:01.805Z,70.00
2018-12-24T21:18:31.485Z,69.70
2018-12-24T21:21:00.430Z,70.10
2018-12-24T21:23:31.027Z,70.80
2018-12-24T21:25:59.904Z,70.20
2018-12-24T21:28:28.785Z,70.40
2018-12-24T21:30:57.878Z,70.00
2018-12-24T21:33:26.836Z,70.60
2018-12-24T21:35:55.774Z,69.40
2018-12-24T21:38:24.855Z,70.50
2018-12-24T21:40:53.844Z,70.80
2018-12-24T21:43:22.728Z,70.50
2018-12-24T21:45:52.646Z,70.10
2018-12-24T21:48:23.927Z,70.20
2018-12-24T21:50:52.053Z,70.10
2018-12-24T21:53:20.933Z,70.50
2018-12-24T21:55:49.898Z,69.70
2018-12-24T21:58:18.996Z,68.80
2018-12-24T22:00:47.996Z,68.60
2018-12-24T22:03:17.741Z,69.00
2018-12-24T22:05:47.470Z,69.10
2018-12-24T22:08:16.395Z,69.00
2018-12-24T22:10:45.378Z,69.20
2018-12-24T22:13:15.169Z,69.40
2018-12-24T22:15:44.075Z,69.60
2018-12-24T22:18:13.167Z,69.70
2018-12-24T22:20:42.150Z,69.80
2018-12-24T22:23:11.006Z,69.60
2018-12-24T22:25:39.931Z,69.20
2018-12-24T22:28:08.894Z,69.80
2018-12-24T22:30:39.519Z,69.70
2018-12-24T22:33:08.430Z,70.10
2018-12-24T22:35:37.460Z,70.50
2018-12-24T22:38:07.813Z,70.10
2018-12-24T22:40:36.870Z,71.00
2018-12-24T22:43:05.749Z,70.90
2018-12-24T22:45:34.744Z,70.80
2018-12-24T22:48:03.836Z,71.30
2018-12-24T22:50:34.251Z,72.20
2018-12-24T22:53:04.024Z,72.00
2018-12-24T22:55:33.793Z,71.60
2018-12-24T22:58:03.119Z,71.60
2018-12-24T23:00:33.765Z,71.60
2018-12-24T23:03:04.300Z,71.60
2018-12-24T23:05:33.321Z,71.60
2018-12-24T23:08:03.854Z,71.60
2018-12-24T23:10:32.802Z,72.20
2018-12-24T23:13:02.538Z,72.10
2018-12-24T23:15:31.651Z,72.30
2018-12-24T23:18:00.775Z,71.80
2018-12-24T23:20:29.640Z,72.30
2018-12-24T23:22:58.762Z,71.70
2018-12-24T23:25:28.715Z,71.50
2018-12-24T23:27:57.582Z,72.10
2018-12-24T23:30:26.933Z,71.50
2018-12-24T23:32:56.882Z,71.80
2018-12-24T23:35:25.753Z,71.90
2018-12-24T23:37:54.672Z,71.70
2018-12-24T23:40:23.617Z,71.50
2018-12-24T23:42:52.877Z,71.50
2018-12-24T23:45:21.771Z,71.60
2018-12-24T23:47:50.739Z,72.00
2018-12-24T23:50:19.741Z,72.10
2018-12-24T23:52:48.532Z,71.70
2018-12-24T23:55:17.459Z,71.50
2018-12-24T23:57:47.157Z,71.50
